NC89 weather

Pungo District Hospital Heliport
Belhaven, North Carolina, United States

Public forecast

Using degrees Fahrenheit for public forecast. Weather courtesy of forecast.io.

METAR (pilot weather report)

Closest report is Warren Field, 21.2 nm (39.3 km) W. Retrieved 2019/02/19 23:00 UTC (9 minutes ago):

KOCW 192300Z AUTO 09007KT 10SM OVC100 05/M01 A3058 RMK AO2 T00451010

TAF (pilot weather forecast)

Closest forecast is Coastal Carolina Regional Airport, 35.1 nm (65.0 km) SW. Retrieved 2019/02/19 18:36 UTC (5 hours ago):

TAF KEWN 191734Z 1918/2018 04010G15KT P6SM VCSH SCT040 OVC100 FM200600 05008KT 6SM -RA SCT030 OVC050 FM200900 05008KT 6SM -RA SCT007 OVC020 FM201400 06010G15KT 5SM -RA OVC007